Nearby METAR Reports

 

KSJC - San Jose, California, USA
Distance from station: NE 9mi, 14km
Updated: 09/22/2018 8:53pm
Partly cloudy
Partly cloudy
 Wind from NW
Wind: NW 14 mph , 22 km/h
Temperature: 73°F , 23°C
Dew Point: 46°F , 8°C
Humidity: 38%
Barometer: 29.90 inHg , 1012.5 hPa
Clouds: Partly cloudy
Visibility: 10 miles , 16 km
Cloud details: Few Clouds 5500 ft
Partly cloudy 8000 ft
2018/09/23 00:53 KSJC 230053Z 32012KT 10SM FEW055 SCT080 23/08 A2990 RMK AO2 SLP124 T02330083
KNUQ - Moffett Nas/Mtn, California, USA
Distance from station: N 9mi, 14km
Updated: 09/22/2018 8:56pm
Clear
Clear
 Wind from N
Wind: N 8 mph , 13 km/h
Temperature: 70°F , 21°C
Dew Point: 55°F , 13°C
Humidity: 60%
Barometer: 29.91 inHg , 1012.9 hPa
Clouds: Clear
Visibility: 10 miles , 16 km
2018/09/23 00:56 KNUQ 230056Z 35007KT 10SM CLR 21/13 A2991 RMK AO2 SLP131 T02060128 $
 
KPAO - Palo Alto, California, USA
Distance from station: NNW 14mi, 23km
Updated: 09/22/2018 8:47pm
Few Clouds
Few Clouds
 Wind from NW
Wind: NW 12 mph , 19 km/h
Temperature: 68°F , 20°C
Barometer: 29.91 inHg , 1012.9 hPa
Clouds: Few Clouds
Visibility: 10 miles , 16 km
Cloud details: Few Clouds 20000 ft
2018/09/23 00:47 KPAO 230047Z 31010KT 10SM FEW200 20/ A2991
KRHV - San Jose/Reid, California, USA
Distance from station: ENE 12mi, 19km
Updated: 09/22/2018 8:47pm
Clear
Clear
 Wind from NW
Wind: NW 10 mph , 17 km/h
Temperature: 81°F , 27°C
Dew Point: 52°F , 11°C
Humidity: 37%
Barometer: 29.88 inHg , 1011.9 hPa
Clouds: Clear
Visibility: 10 miles , 16 km
2018/09/23 00:47 KRHV 230047Z 32009KT 10SM SKC 27/11 A2988
 
KOAK - Oakland, California, USA
Distance from station: NNW 31mi, 50km
Updated: 09/22/2018 8:53pm
Few Clouds
Few Clouds
 Wind from W
Wind: W 14 mph , 22 km/h
Temperature: 63°F , 17°C
Dew Point: 54°F , 12°C
Humidity: 73%
Barometer: 29.92 inHg , 1013.2 hPa
Clouds: Few Clouds
Visibility: 10 miles , 16 km
Cloud details: Few Clouds 1000 ft
Few Clouds 20000 ft
2018/09/23 00:53 KOAK 230053Z 28012KT 10SM FEW010 FEW200 17/12 A2992 RMK AO2 SLP131 T01670122 $
KSQL - San Carlos Airpo, California, USA
Distance from station: NW 21mi, 34km
Updated: 09/22/2018 8:47pm
Few Clouds
Few Clouds
 Wind from NW
Wind: NW 8 mph , 13 km/h
Temperature: 68°F , 20°C
Dew Point: 52°F , 11°C
Humidity: 56%
Barometer: 29.90 inHg , 1012.5 hPa
Clouds: Few Clouds
Visibility: 10 miles , 16 km
Cloud details: Few Clouds 20000 ft
2018/09/23 00:47 KSQL 230047Z 32007KT 10SM FEW200 20/11 A2990
 
KSFO - San Francisco, California, USA
Distance from station: NW 30mi, 49km
Updated: 09/22/2018 8:56pm
Few Clouds
Few Clouds
 Wind from WNW
Wind: WNW 20 mph , 31 km/h
Temperature: 57°F , 14°C
Dew Point: 48°F , 9°C
Humidity: 72%
Barometer: 29.91 inHg , 1012.9 hPa
Clouds: Few Clouds
Visibility: 10 miles , 16 km
Cloud details: Few Clouds 400 ft
Few Clouds 20000 ft
2018/09/23 00:56 KSFO 230056Z 29017KT 10SM FEW004 FEW200 14/09 A2991 RMK AO2 SLP127 T01440094 $
KE16 - San Martin, California, USA
Distance from station: ESE 27mi, 43km
Updated: 09/22/2018 9:15pm
Clear
Clear
 Wind from WNW
Wind: WNW 7 mph , 11 km/h
Temperature: 81°F , 27°C
Dew Point: 45°F , 7°C
Humidity: 28%
Barometer: 29.90 inHg , 1012.5 hPa
Clouds: Clear
Visibility: 10 miles , 16 km
2018/09/23 01:15 KE16 230115Z AUTO 30006KT 10SM CLR 27/07 A2990 RMK AO2
 
KWVI - Watsonville, California, USA
Distance from station: SSE 27mi, 44km
Updated: 09/22/2018 8:53pm
Mostly cloudy
Mostly cloudy
 Wind from W
Wind: W 7 mph , 11 km/h
Temperature: 55°F , 13°C
Dew Point: 52°F , 11°C
Humidity: 88%
Barometer: 29.95 inHg , 1014.2 hPa
Clouds: Mostly cloudy
Visibility: 10 miles , 16 km
Cloud details: Mostly cloudy 600 ft
2018/09/23 00:53 KWVI 230053Z AUTO 26006KT 10SM BKN006 13/11 A2995 RMK AO2 SLP141 T01330111 $
KHAF - Half Moon Bay, California, USA
Distance from station: WNW 31mi, 50km
Updated: 09/22/2018 9:15pm
Overcast
Overcast
 Wind from NW
Wind: NW 9 mph , 15 km/h
Temperature: 54°F , 12°C
Dew Point: 50°F , 10°C
Humidity: 88%
Barometer: 29.95 inHg , 1014.2 hPa
Clouds: Overcast
Visibility: 10 miles , 16 km
Cloud details: Overcast 300 ft
2018/09/23 01:15 KHAF 230115Z AUTO 32008KT 10SM OVC003 12/10 A2995 RMK AO2
 
KHWD - Hayward, California, USA
Distance from station: N 28mi, 44km
Updated: 09/22/2018 8:54pm
Clear
Clear
 Wind from W
Wind: W 9 mph , 15 km/h
Temperature: 66°F , 19°C
Dew Point: 54°F , 12°C
Humidity: 64%
Barometer: 29.91 inHg , 1012.9 hPa
Clouds: Clear
Visibility: 10 miles , 16 km
2018/09/23 00:54 KHWD 230054Z 28008KT 10SM CLR 19/12 A2991 RMK AO2 SLP135 T01890122
KLVK - Livermore, California, USA
Distance from station: NNE 31mi, 51km
Updated: 09/22/2018 8:53pm
Clear
Clear
 Wind from W
Wind: W 12 mph , 19 km/h
Temperature: 84°F , 29°C
Dew Point: 41°F , 5°C
Humidity: 22%
Barometer: 29.87 inHg , 1011.5 hPa
Clouds: Clear
Visibility: 10 miles , 16 km
2018/09/23 00:53 KLVK 230053Z AUTO 27010KT 10SM CLR 29/05 A2987 RMK AO2 SLP112 T02890050